Time;durP1;ratioP1;P1;durP2;ratioP2;P2;SDS_P1;SDS_P2;PMS_P1;PMS_P2;Temp;Humidity;BMP_temperature;BMP_pressure;BME280_temperature;BME280_humidity;BME280_pressure;Samples;Min_cycle;Max_cycle;Signal;HPM_P1;HPM_P2
2023/09/10 00:00:58;;;;;;;1999.90;999.90;;;22.30;99.90;;;;;;5014024;28;20453;-74
2023/09/10 00:03:24;;;;;;;1999.90;999.90;;;22.30;99.90;;;;;;5013813;28;20440;-73
2023/09/10 00:05:49;;;;;;;1999.90;999.90;;;22.20;99.90;;;;;;5014130;28;20673;-75
2023/09/10 00:08:15;;;;;;;1999.90;999.90;;;22.20;99.90;;;;;;5013979;28;20179;-74
2023/09/10 00:10:42;;;;;;;1999.90;999.90;;;22.20;99.90;;;;;;5014079;28;20181;-74
2023/09/10 00:13:08;;;;;;;1999.90;999.90;;;22.20;99.90;;;;;;5013727;28;20205;-74
2023/09/10 00:15:34;;;;;;;1999.90;999.90;;;22.20;99.90;;;;;;5014179;28;20760;-75
2023/09/10 00:17:59;;;;;;;1999.90;999.90;;;22.10;99.90;;;;;;5014042;28;20491;-75
2023/09/10 00:20:26;;;;;;;1999.90;999.90;;;22.00;99.90;;;;;;5013880;28;20569;-75
2023/09/10 00:22:52;;;;;;;1999.90;999.90;;;22.00;99.90;;;;;;5013316;28;20205;-74
2023/09/10 00:25:18;;;;;;;1999.90;999.90;;;22.00;99.90;;;;;;5013635;28;20413;-74
2023/09/10 00:27:43;;;;;;;1999.90;999.90;;;22.00;99.90;;;;;;5001997;28;20838;-74
2023/09/10 00:30:10;;;;;;;1999.90;999.90;;;21.90;99.90;;;;;;4993976;28;20177;-74
2023/09/10 00:32:36;;;;;;;1999.90;999.90;;;21.90;99.90;;;;;;4993898;28;20181;-74
2023/09/10 00:35:01;;;;;;;1999.90;999.90;;;21.80;99.90;;;;;;4994456;28;20905;-74
2023/09/10 00:37:27;;;;;;;1999.90;999.90;;;21.90;99.90;;;;;;4994167;28;20186;-74
2023/09/10 00:39:52;;;;;;;1999.90;999.90;;;21.90;99.90;;;;;;4994356;28;20228;-74
2023/09/10 00:42:18;;;;;;;1999.90;999.90;;;21.90;99.90;;;;;;4993986;28;20260;-74
2023/09/10 00:44:43;;;;;;;1999.90;999.90;;;21.90;99.90;;;;;;4994172;28;20201;-74
2023/09/10 00:47:09;;;;;;;1999.90;999.90;;;21.80;99.90;;;;;;4993953;28;20170;-74
2023/09/10 00:49:36;;;;;;;1999.90;999.90;;;21.70;99.90;;;;;;4994282;28;20181;-74
2023/09/10 00:52:03;;;;;;;1999.90;999.90;;;21.70;99.90;;;;;;4994376;28;20427;-74
2023/09/10 00:54:32;;;;;;;1999.90;999.90;;;21.70;99.90;;;;;;4994264;28;20404;-74
2023/09/10 00:57:00;;;;;;;1999.90;999.90;;;21.70;99.90;;;;;;4994772;28;20784;-74
2023/09/10 00:59:27;;;;;;;1999.90;999.90;;;21.70;99.90;;;;;;4994254;28;20452;-75
2023/09/10 01:01:53;;;;;;;1999.90;999.90;;;21.70;99.90;;;;;;4994226;28;20414;-73
2023/09/10 01:04:21;;;;;;;1999.90;999.90;;;21.70;99.90;;;;;;4993925;28;20459;-74
2023/09/10 01:06:47;;;;;;;1999.90;999.90;;;21.70;99.90;;;;;;4993866;28;20165;-74
2023/09/10 01:09:12;;;;;;;1999.90;999.90;;;21.60;99.90;;;;;;4993816;28;20425;-74
2023/09/10 01:11:57;;;;;;;1999.90;999.90;;;21.60;99.90;;;;;;4994058;28;20384;-74
2023/09/10 01:14:36;;;;;;;1999.90;999.90;;;21.50;99.90;;;;;;4993760;28;20672;-75
2023/09/10 01:17:33;;;;;;;1999.90;999.90;;;21.50;99.90;;;;;;4992902;28;20894;-75
2023/09/10 01:20:14;;;;;;;1999.90;999.90;;;21.50;99.90;;;;;;4992811;28;21007;-72
2023/09/10 01:23:05;;;;;;;1999.90;999.90;;;21.50;99.90;;;;;;4992520;28;20409;-73
2023/09/10 01:25:33;;;;;;;1999.90;999.90;;;21.40;99.90;;;;;;4992720;28;20438;-72
2023/09/10 01:28:04;;;;;;;1999.90;999.90;;;21.40;99.90;;;;;;4992820;28;20561;-73
2023/09/10 01:30:32;;;;;;;1999.90;999.90;;;21.30;99.90;;;;;;4992792;28;20384;-74
2023/09/10 01:33:07;;;;;;;1999.90;999.90;;;21.30;99.90;;;;;;4992301;28;20432;-73
2023/09/10 01:35:41;;;;;;;1999.90;999.90;;;21.30;99.90;;;;;;4992735;28;20386;-72
2023/09/10 01:38:25;;;;;;;1999.90;999.90;;;21.20;99.90;;;;;;4992677;28;20459;-72
2023/09/10 01:41:03;;;;;;;1999.90;999.90;;;21.10;99.90;;;;;;4991762;28;20539;-72
2023/09/10 01:43:31;;;;;;;1999.90;999.90;;;21.00;99.90;;;;;;4992332;28;20432;-72
2023/09/10 01:45:56;;;;;;;1999.90;999.90;;;20.90;99.90;;;;;;4992580;28;20390;-73
2023/09/10 01:48:26;;;;;;;1999.90;999.90;;;21.00;99.90;;;;;;4992995;28;20419;-73
2023/09/10 01:50:52;;;;;;;1999.90;999.90;;;20.90;99.90;;;;;;4993414;28;20183;-75
2023/09/10 01:53:18;;;;;;;1999.90;999.90;;;20.90;99.90;;;;;;4993035;28;20837;-74
2023/09/10 01:55:44;;;;;;;1999.90;999.90;;;20.90;99.90;;;;;;4993423;28;20415;-74
2023/09/10 01:58:13;;;;;;;1999.90;999.90;;;20.90;99.90;;;;;;4993269;28;20404;-74
2023/09/10 02:00:39;;;;;;;1999.90;999.90;;;20.90;99.90;;;;;;4992911;28;20892;-74
2023/09/10 02:03:04;;;;;;;1999.90;999.90;;;20.90;99.90;;;;;;4992600;28;20399;-74
2023/09/10 02:05:30;;;;;;;1999.90;999.90;;;20.80;99.90;;;;;;4993453;28;20811;-74
2023/09/10 02:07:56;;;;;;;1999.90;999.90;;;20.80;99.90;;;;;;4993075;28;20196;-74
2023/09/10 02:10:22;;;;;;;1999.90;999.90;;;20.80;99.90;;;;;;4992799;28;20783;-74
2023/09/10 02:12:47;;;;;;;1999.90;999.90;;;20.70;99.90;;;;;;4992557;28;20173;-75
2023/09/10 02:15:13;;;;;;;1999.90;999.90;;;20.80;99.90;;;;;;4992331;28;20177;-75
2023/09/10 02:17:39;;;;;;;1999.90;999.90;;;20.80;99.90;;;;;;4992193;28;20592;-75
2023/09/10 02:20:09;;;;;;;1999.90;999.90;;;20.90;99.90;;;;;;4992174;28;20528;-74
2023/09/10 02:22:39;;;;;;;1999.90;999.90;;;20.90;99.90;;;;;;4992069;28;20608;-75
2023/09/10 02:25:05;;;;;;;1999.90;999.90;;;20.90;99.90;;;;;;4992126;28;20408;-74
2023/09/10 02:27:32;;;;;;;1999.90;999.90;;;20.90;99.90;;;;;;4992283;28;20775;-75
2023/09/10 02:29:58;;;;;;;1999.90;999.90;;;20.90;99.90;;;;;;4992133;28;20418;-75
2023/09/10 02:32:24;;;;;;;1999.90;999.90;;;20.90;99.90;;;;;;4991919;28;20440;-75
2023/09/10 02:34:52;;;;;;;1999.90;999.90;;;20.90;99.90;;;;;;4992140;28;20787;-75
2023/09/10 02:37:18;;;;;;;1999.90;999.90;;;20.90;99.90;;;;;;4992225;28;20411;-75
2023/09/10 02:39:43;;;;;;;1999.90;999.90;;;20.80;99.90;;;;;;4992061;28;20979;-75
2023/09/10 02:42:09;;;;;;;1999.90;999.90;;;20.80;99.90;;;;;;4991798;28;20316;-74
2023/09/10 02:44:35;;;;;;;1999.90;999.90;;;20.80;99.90;;;;;;4991948;28;20232;-74
2023/09/10 02:47:00;;;;;;;1999.90;999.90;;;20.90;99.90;;;;;;4992069;28;20180;-75
2023/09/10 02:49:26;;;;;;;1999.90;999.90;;;20.80;99.90;;;;;;4992060;28;20411;-75
2023/09/10 02:51:52;;;;;;;1999.90;999.90;;;20.80;99.90;;;;;;4993386;28;20181;-75
2023/09/10 02:54:17;;;;;;;1999.90;999.90;;;20.80;99.90;;;;;;4995292;28;20200;-74
2023/09/10 02:56:43;;;;;;;1999.90;999.90;;;20.80;99.90;;;;;;4995550;28;20256;-73
2023/09/10 02:59:20;;;;;;;1999.90;999.90;;;20.80;99.90;;;;;;4995374;28;20209;-74
2023/09/10 03:01:46;;;;;;;1999.90;999.90;;;20.70;99.90;;;;;;4995611;28;20175;-74
2023/09/10 03:04:16;;;;;;;1999.90;999.90;;;20.70;99.90;;;;;;4996320;28;20838;-74
2023/09/10 03:06:49;;;;;;;1999.90;999.90;;;20.70;99.90;;;;;;4997105;28;20167;-74
2023/09/10 03:09:15;;;;;;;1999.90;999.90;;;20.70;99.90;;;;;;4996757;28;20930;-74
2023/09/10 03:11:42;;;;;;;1999.90;999.90;;;20.60;99.90;;;;;;4996268;28;20409;-74
2023/09/10 03:14:08;;;;;;;1999.90;999.90;;;20.70;99.90;;;;;;4996275;28;20478;-74
2023/09/10 03:16:35;;;;;;;1999.90;999.90;;;20.70;99.90;;;;;;4996391;28;20415;-74
2023/09/10 03:19:01;;;;;;;1999.90;999.90;;;20.60;99.90;;;;;;4995931;28;20448;-74
2023/09/10 03:21:27;;;;;;;1999.90;999.90;;;20.60;99.90;;;;;;4996301;28;20469;-74
2023/09/10 03:23:54;;;;;;;1999.90;999.90;;;20.50;99.90;;;;;;4995894;28;20456;-74
2023/09/10 03:26:20;;;;;;;1999.90;999.90;;;20.40;99.90;;;;;;4996096;28;20287;-74
2023/09/10 03:28:46;;;;;;;1999.90;999.90;;;20.40;99.90;;;;;;4995982;28;20509;-73
2023/09/10 03:31:11;;;;;;;1999.90;999.90;;;20.40;99.90;;;;;;4995845;28;20566;-75
2023/09/10 03:33:37;;;;;;;1999.90;999.90;;;20.40;99.90;;;;;;4995639;28;20204;-74
2023/09/10 03:36:03;;;;;;;1999.90;999.90;;;20.40;99.90;;;;;;4995268;28;20255;-72
2023/09/10 03:38:29;;;;;;;1999.90;999.90;;;20.40;99.90;;;;;;4994787;28;20180;-72
2023/09/10 03:40:55;;;;;;;1999.90;999.90;;;20.30;99.90;;;;;;4994703;28;20459;-72
2023/09/10 03:43:20;;;;;;;1999.90;999.90;;;20.40;99.90;;;;;;4994335;28;20398;-73
2023/09/10 03:45:46;;;;;;;1999.90;999.90;;;20.30;99.90;;;;;;4994792;28;20543;-73
2023/09/10 03:48:12;;;;;;;1999.90;999.90;;;20.40;99.90;;;;;;4994712;28;20181;-72
2023/09/10 03:50:38;;;;;;;1999.90;999.90;;;20.20;99.90;;;;;;4994533;28;20236;-73
2023/09/10 03:53:04;;;;;;;1999.90;999.90;;;20.20;99.90;;;;;;4994125;28;20406;-72
2023/09/10 03:55:30;;;;;;;1999.90;999.90;;;20.20;99.90;;;;;;4994426;28;20736;-72
2023/09/10 03:57:56;;;;;;;1999.90;999.90;;;20.30;99.90;;;;;;4994591;28;20246;-72
2023/09/10 04:00:22;;;;;;;1999.90;999.90;;;20.30;99.90;;;;;;4994275;28;20427;-72
2023/09/10 04:02:47;;;;;;;1999.90;999.90;;;20.30;99.90;;;;;;4993371;28;20169;-72
2023/09/10 04:05:13;;;;;;;1999.90;999.90;;;20.30;99.90;;;;;;4994120;28;20915;-72
2023/09/10 04:07:39;;;;;;;1999.90;999.90;;;20.30;99.90;;;;;;4994251;28;20174;-72
2023/09/10 04:10:06;;;;;;;1999.90;999.90;;;20.20;99.90;;;;;;4994149;28;20184;-73
2023/09/10 04:12:32;;;;;;;1999.90;999.90;;;20.20;99.90;;;;;;4993885;28;20168;-73
2023/09/10 04:14:58;;;;;;;1999.90;999.90;;;20.30;99.90;;;;;;4994016;28;20417;-73
2023/09/10 04:17:28;;;;;;;1999.90;999.90;;;20.20;99.90;;;;;;4994106;28;20255;-73
2023/09/10 04:19:59;;;;;;;1999.90;999.90;;;20.20;99.90;;;;;;4995422;28;20552;-73
2023/09/10 04:22:25;;;;;;;1999.90;999.90;;;20.30;99.90;;;;;;4997617;28;20755;-73
2023/09/10 04:24:51;;;;;;;1999.90;999.90;;;20.20;99.90;;;;;;5012521;28;20461;-73
2023/09/10 04:27:17;;;;;;;1999.90;999.90;;;20.20;99.90;;;;;;5013418;28;20516;-74
2023/09/10 04:29:43;;;;;;;1999.90;999.90;;;20.20;99.90;;;;;;5013397;28;20178;-73
2023/09/10 04:32:08;;;;;;;1999.90;999.90;;;20.10;99.90;;;;;;5013079;28;20202;-73
2023/09/10 04:34:34;;;;;;;1999.90;999.90;;;20.10;99.90;;;;;;5013262;28;20426;-73
2023/09/10 04:37:02;;;;;;;1999.90;999.90;;;20.00;99.90;;;;;;5013191;28;20179;-73
2023/09/10 04:39:27;;;;;;;1999.90;999.90;;;20.10;99.90;;;;;;5013331;28;20211;-73
2023/09/10 04:41:53;;;;;;;1999.90;999.90;;;20.00;99.90;;;;;;5013159;28;20992;-73
2023/09/10 04:44:20;;;;;;;1999.90;999.90;;;20.00;99.90;;;;;;5012788;28;20252;-73
2023/09/10 04:46:46;;;;;;;1999.90;999.90;;;19.90;99.90;;;;;;5013147;28;20184;-73
2023/09/10 04:49:11;;;;;;;1999.90;999.90;;;19.90;99.90;;;;;;5013030;28;20409;-73
2023/09/10 04:51:37;;;;;;;1999.90;999.90;;;19.80;99.90;;;;;;5012927;28;20692;-74
2023/09/10 04:54:02;;;;;;;1999.90;999.90;;;19.90;99.90;;;;;;5011940;28;20200;-73
2023/09/10 04:56:28;;;;;;;1999.90;999.90;;;19.90;99.90;;;;;;4994081;28;20181;-74
2023/09/10 04:58:54;;;;;;;1999.90;999.90;;;19.80;99.90;;;;;;5003904;28;20193;-72
2023/09/10 05:01:19;;;;;;;1999.90;999.90;;;19.80;99.90;;;;;;5012844;28;20253;-73
2023/09/10 05:03:45;;;;;;;1999.90;999.90;;;19.70;99.90;;;;;;5012422;28;20241;-72
2023/09/10 05:06:12;;;;;;;1999.90;999.90;;;19.70;99.90;;;;;;5012683;28;20166;-72
2023/09/10 05:08:38;;;;;;;1999.90;999.90;;;19.80;99.90;;;;;;5012700;28;20236;-72
2023/09/10 05:11:03;;;;;;;1999.90;999.90;;;19.70;99.90;;;;;;5012588;28;20412;-73
2023/09/10 05:13:29;;;;;;;1999.90;999.90;;;19.70;99.90;;;;;;5012260;28;20194;-72
2023/09/10 05:15:57;;;;;;;1999.90;999.90;;;19.70;99.90;;;;;;5012517;28;20798;-72
2023/09/10 05:18:23;;;;;;;1999.90;999.90;;;19.70;99.90;;;;;;5012536;28;20249;-73
2023/09/10 05:20:49;;;;;;;1999.90;999.90;;;19.80;99.90;;;;;;5012402;28;20802;-73
2023/09/10 05:23:15;;;;;;;1999.90;999.90;;;19.90;99.90;;;;;;5012094;28;20436;-75
2023/09/10 05:25:40;;;;;;;1999.90;999.90;;;19.90;99.90;;;;;;5012379;28;20192;-74
2023/09/10 05:28:06;;;;;;;1999.90;999.90;;;19.90;99.90;;;;;;5012402;28;20172;-74
2023/09/10 05:30:31;;;;;;;1999.90;999.90;;;20.00;99.90;;;;;;5013793;28;20547;-74
2023/09/10 05:32:57;;;;;;;1999.90;999.90;;;20.00;99.90;;;;;;5012287;28;20197;-75
2023/09/10 05:35:24;;;;;;;1999.90;999.90;;;20.00;99.90;;;;;;5012283;28;20555;-75
2023/09/10 05:37:50;;;;;;;1999.90;999.90;;;20.00;99.90;;;;;;5012494;28;20469;-73
2023/09/10 05:40:15;;;;;;;1999.90;999.90;;;20.10;99.90;;;;;;5012192;28;20893;-75
2023/09/10 05:42:41;;;;;;;1999.90;999.90;;;20.20;99.90;;;;;;5011853;28;20167;-74
2023/09/10 05:45:07;;;;;;;1999.90;999.90;;;20.20;99.90;;;;;;5012179;28;20186;-75
2023/09/10 05:47:32;;;;;;;1999.90;999.90;;;20.30;99.90;;;;;;5012204;28;20308;-75
2023/09/10 05:50:00;;;;;;;1999.90;999.90;;;20.30;99.90;;;;;;5012116;28;20920;-73
2023/09/10 05:52:25;;;;;;;1999.90;999.90;;;20.30;99.90;;;;;;5011880;28;20182;-75
2023/09/10 05:54:51;;;;;;;1999.90;999.90;;;20.40;99.90;;;;;;5012009;28;20800;-75
2023/09/10 05:57:16;;;;;;;1999.90;999.90;;;20.50;99.90;;;;;;5012016;28;20179;-74
2023/09/10 05:59:42;;;;;;;1999.90;999.90;;;20.50;99.90;;;;;;5012003;28;20237;-73
2023/09/10 06:02:08;;;;;;;1999.90;999.90;;;20.50;99.90;;;;;;5011785;28;20176;-74
2023/09/10 06:04:33;;;;;;;1999.90;999.90;;;20.50;99.90;;;;;;5011906;28;20620;-75
2023/09/10 06:07:03;;;;;;;1999.90;999.90;;;20.60;99.90;;;;;;5012050;28;20199;-75
2023/09/10 06:09:29;;;;;;;1999.90;999.90;;;20.50;99.90;;;;;;5011982;28;20546;-74
2023/09/10 06:11:55;;;;;;;1999.90;999.90;;;20.60;99.90;;;;;;5011811;28;20415;-74
2023/09/10 06:14:20;;;;;;;1999.90;999.90;;;20.70;99.90;;;;;;5011668;28;20437;-75
2023/09/10 06:16:46;;;;;;;1999.90;999.90;;;20.70;99.90;;;;;;5011998;28;20183;-75
2023/09/10 06:19:11;;;;;;;1999.90;999.90;;;20.70;99.90;;;;;;5011742;28;20180;-74
2023/09/10 06:21:37;;;;;;;1999.90;999.90;;;20.70;99.90;;;;;;5011886;28;20168;-75
2023/09/10 06:24:03;;;;;;;1999.90;999.90;;;20.80;99.90;;;;;;5011415;28;20200;-72
2023/09/10 06:26:29;;;;;;;1999.90;999.90;;;20.90;99.90;;;;;;5012769;28;20574;-75
2023/09/10 06:28:54;;;;;;;1999.90;999.90;;;20.90;99.90;;;;;;4993351;28;20435;-75
2023/09/10 06:31:20;;;;;;;1999.90;999.90;;;20.90;99.90;;;;;;5006697;28;20407;-73
2023/09/10 06:33:46;;;;;;;1999.90;999.90;;;21.00;99.90;;;;;;5012876;28;20279;-72
2023/09/10 06:36:11;;;;;;;1999.90;999.90;;;21.10;99.90;;;;;;5015495;28;20172;-73
2023/09/10 06:38:37;;;;;;;1999.90;999.90;;;21.10;99.90;;;;;;5015505;28;20169;-73
2023/09/10 06:41:02;;;;;;;1999.90;999.90;;;21.20;99.90;;;;;;4996922;28;20759;-73
2023/09/10 06:43:28;;;;;;;1999.90;999.90;;;21.30;99.90;;;;;;5006219;28;20210;-72
2023/09/10 06:45:54;;;;;;;1999.90;999.90;;;21.30;99.90;;;;;;5014108;28;20176;-73
2023/09/10 06:48:19;;;;;;;1999.90;999.90;;;21.50;99.90;;;;;;5015180;28;20640;-73
2023/09/10 06:50:45;;;;;;;1999.90;999.90;;;21.50;99.90;;;;;;5015289;28;20180;-74
2023/09/10 06:53:11;;;;;;;1999.90;999.90;;;21.60;99.90;;;;;;5015053;28;20196;-73
2023/09/10 06:55:36;;;;;;;1999.90;999.90;;;21.60;99.90;;;;;;5015162;28;20172;-73
2023/09/10 06:58:02;;;;;;;1999.90;999.90;;;21.70;99.90;;;;;;5015161;28;20230;-73
2023/09/10 07:00:27;;;;;;;1999.90;999.90;;;21.80;99.90;;;;;;5014967;28;20207;-73
2023/09/10 07:02:53;;;;;;;1999.90;999.90;;;21.90;99.90;;;;;;5007458;28;20308;-74
2023/09/10 07:05:19;;;;;;;1999.90;999.90;;;22.00;99.90;;;;;;5001189;28;20179;-75
2023/09/10 07:07:45;;;;;;;1999.90;999.90;;;22.00;99.90;;;;;;5006436;28;20168;-75
2023/09/10 07:10:11;;;;;;;1999.90;999.90;;;22.10;99.90;;;;;;5008337;28;20637;-75
2023/09/10 07:12:37;;;;;;;1999.90;999.90;;;22.20;99.90;;;;;;5001469;28;20397;-75
2023/09/10 07:15:02;;;;;;;1999.90;999.90;;;22.30;99.90;;;;;;4993009;28;20177;-75
2023/09/10 07:17:28;;;;;;;1999.90;999.90;;;22.40;99.90;;;;;;5001102;28;20419;-73
2023/09/10 07:19:54;;;;;;;1999.90;999.90;;;22.40;99.90;;;;;;5004388;28;20458;-73
2023/09/10 07:22:19;;;;;;;1999.90;999.90;;;22.50;99.90;;;;;;5007738;28;20600;-74
2023/09/10 07:24:45;;;;;;;1999.90;999.90;;;22.60;99.90;;;;;;5003535;28;20213;-73
2023/09/10 07:27:10;;;;;;;1999.90;999.90;;;22.70;99.90;;;;;;5014586;28;20244;-73
2023/09/10 07:29:36;;;;;;;1999.90;999.90;;;22.70;99.90;;;;;;5014584;28;20169;-73
2023/09/10 07:32:02;;;;;;;1999.90;999.90;;;22.80;99.90;;;;;;5013871;28;20173;-74
2023/09/10 07:34:27;;;;;;;1999.90;999.90;;;22.90;99.90;;;;;;5002874;28;20194;-73
2023/09/10 07:36:53;;;;;;;1999.90;999.90;;;23.00;99.90;;;;;;5012753;28;20173;-73
2023/09/10 07:39:22;;;;;;;1999.90;999.90;;;23.10;99.90;;;;;;5013049;28;20228;-75
2023/09/10 07:41:47;;;;;;;1999.90;999.90;;;23.20;99.90;;;;;;5014486;28;20522;-75
2023/09/10 07:44:13;;;;;;;1999.90;999.90;;;23.30;99.90;;;;;;5014678;28;20450;-74
2023/09/10 07:46:39;;;;;;;1999.90;999.90;;;23.40;99.90;;;;;;5004918;28;20181;-75
2023/09/10 07:49:04;;;;;;;1999.90;999.90;;;23.50;99.90;;;;;;5013995;28;20501;-74
2023/09/10 07:51:30;;;;;;;1999.90;999.90;;;23.60;99.90;;;;;;5014142;28;20176;-73
2023/09/10 07:53:55;;;;;;;1999.90;999.90;;;23.70;99.90;;;;;;5013802;28;20196;-72
2023/09/10 07:56:21;;;;;;;1999.90;999.90;;;23.80;99.90;;;;;;5013961;28;20169;-73
2023/09/10 07:58:46;;;;;;;1999.90;999.90;;;23.90;99.90;;;;;;5013999;28;20536;-75
2023/09/10 08:01:12;;;;;;;1999.90;999.90;;;24.00;99.90;;;;;;5013845;28;20193;-75
2023/09/10 08:03:38;;;;;;;1999.90;999.90;;;24.10;99.90;;;;;;5013357;28;20291;-75
2023/09/10 08:06:04;;;;;;;1999.90;999.90;;;24.20;99.90;;;;;;5005641;28;20699;-75
2023/09/10 08:08:30;;;;;;;1999.90;999.90;;;24.30;99.90;;;;;;5013979;28;20382;-75
2023/09/10 08:10:55;;;;;;;1999.90;999.90;;;24.40;99.90;;;;;;5013738;28;20412;-75
2023/09/10 08:13:21;;;;;;;1999.90;999.90;;;24.40;99.90;;;;;;5013380;28;20263;-76
2023/09/10 08:15:47;;;;;;;1999.90;999.90;;;24.60;99.90;;;;;;5013628;28;20173;-75
2023/09/10 08:18:12;;;;;;;1999.90;999.90;;;24.60;99.90;;;;;;5013932;28;20169;-75
2023/09/10 08:20:39;;;;;;;1999.90;999.90;;;24.70;99.90;;;;;;5013678;28;20215;-75
2023/09/10 08:23:05;;;;;;;1999.90;999.90;;;24.90;99.90;;;;;;5013291;28;20189;-74
2023/09/10 08:25:32;;;;;;;1999.90;999.90;;;24.90;99.90;;;;;;5013329;28;20452;-73
2023/09/10 08:27:58;;;;;;;1999.90;999.90;;;25.00;99.90;;;;;;5013431;28;20383;-73
2023/09/10 08:30:24;;;;;;;1999.90;999.90;;;25.10;99.90;;;;;;5013336;28;20908;-73
2023/09/10 08:32:50;;;;;;;1999.90;999.90;;;25.30;99.90;;;;;;5013050;28;20401;-73
2023/09/10 08:35:18;;;;;;;1999.90;999.90;;;25.30;99.90;;;;;;4998869;28;20675;-73
2023/09/10 08:37:44;;;;;;;1999.90;999.90;;;25.50;99.90;;;;;;5005289;28;20637;-75
2023/09/10 08:40:10;;;;;;;1999.90;999.90;;;25.60;99.90;;;;;;5011285;28;20448;-75
2023/09/10 08:43:08;;;;;;;1999.90;999.90;;;25.70;99.90;;;;;;4992792;28;20174;-75
2023/09/10 08:45:34;;;;;;;1999.90;999.90;;;25.90;99.90;;;;;;5001849;28;20408;-75
2023/09/10 08:48:01;;;;;;;1999.90;999.90;;;26.00;99.90;;;;;;4993649;28;20413;-75
2023/09/10 08:50:27;;;;;;;1999.90;999.90;;;26.10;99.90;;;;;;5000579;28;20201;-75
2023/09/10 08:52:54;;;;;;;1999.90;999.90;;;26.20;99.90;;;;;;5010548;28;20390;-72
2023/09/10 08:55:21;;;;;;;1999.90;999.90;;;26.30;99.90;;;;;;5012877;28;20915;-72
2023/09/10 08:57:48;;;;;;;1999.90;999.90;;;26.40;99.90;;;;;;5012906;28;20463;-73
2023/09/10 09:00:15;;;;;;;1999.90;999.90;;;26.50;99.90;;;;;;5012800;28;20605;-73
2023/09/10 09:02:43;;;;;;;1999.90;999.90;;;26.60;99.90;;;;;;5011297;28;20408;-75
2023/09/10 09:05:09;;;;;;;1999.90;999.90;;;26.70;99.90;;;;;;5000418;28;20418;-75
2023/09/10 09:07:47;;;;;;;1999.90;999.90;;;26.70;99.90;;;;;;5002766;28;20494;-75
2023/09/10 09:10:21;;;;;;;1999.90;999.90;;;26.80;99.90;;;;;;4999565;28;20471;-75
2023/09/10 09:12:49;;;;;;;1999.90;999.90;;;26.90;99.90;;;;;;4998211;28;20435;-74
2023/09/10 09:15:16;;;;;;;1999.90;999.90;;;27.00;99.90;;;;;;5009728;28;20947;-75
2023/09/10 09:17:43;;;;;;;1999.90;999.90;;;27.10;99.90;;;;;;5009346;28;20393;-74
2023/09/10 09:20:11;;;;;;;1999.90;999.90;;;27.20;99.90;;;;;;5012932;28;20542;-75
2023/09/10 09:22:41;;;;;;;1999.90;999.90;;;27.30;99.90;;;;;;5010031;28;20400;-74
2023/09/10 09:25:08;;;;;;;1999.90;999.90;;;27.40;99.90;;;;;;5004717;28;20490;-75
2023/09/10 09:27:34;;;;;;;1999.90;999.90;;;27.50;99.90;;;;;;5012923;28;20474;-75
2023/09/10 09:30:05;;;;;;;1999.90;999.90;;;27.60;99.90;;;;;;5012603;28;20507;-73
2023/09/10 09:32:37;;;;;;;1999.90;999.90;;;27.70;99.90;;;;;;5012572;28;20419;-75
2023/09/10 09:35:03;;;;;;;1999.90;999.90;;;27.90;99.90;;;;;;5013252;28;20408;-75
2023/09/10 09:37:32;;;;;;;1999.90;999.90;;;28.00;99.90;;;;;;5012389;28;20408;-73
2023/09/10 09:40:00;;;;;;;1999.90;999.90;;;28.10;99.90;;;;;;5012144;28;20490;-74
2023/09/10 09:42:26;;;;;;;1999.90;999.90;;;28.20;99.90;;;;;;5012058;28;20396;-73
2023/09/10 09:44:51;;;;;;;1999.90;999.90;;;28.30;99.90;;;;;;5002444;28;20437;-73
2023/09/10 09:47:17;;;;;;;1999.90;999.90;;;28.40;99.90;;;;;;5001862;28;20422;-73
2023/09/10 09:49:44;;;;;;;1999.90;999.90;;;28.40;99.90;;;;;;5003315;28;20180;-73
2023/09/10 09:52:11;;;;;;;1999.90;999.90;;;28.50;99.90;;;;;;5001468;28;20197;-73
2023/09/10 09:54:36;;;;;;;1999.90;999.90;;;28.60;99.90;;;;;;5003945;28;20438;-74
2023/09/10 09:57:04;;;;;;;1999.90;999.90;;;28.70;99.90;;;;;;5012126;28;20891;-73
2023/09/10 09:59:29;;;;;;;1999.90;999.90;;;28.80;99.90;;;;;;5011394;28;20676;-72
2023/09/10 10:01:56;;;;;;;1999.90;999.90;;;29.00;99.90;;;;;;5005475;28;20435;-75
2023/09/10 10:04:23;;;;;;;1999.90;999.90;;;29.10;99.90;;;;;;5015892;28;20577;-73
2023/09/10 10:06:49;;;;;;;1999.90;999.90;;;29.30;99.90;;;;;;5016015;28;20404;-72
2023/09/10 10:09:15;;;;;;;1999.90;999.90;;;29.30;99.90;;;;;;5010738;28;20447;-74
2023/09/10 10:11:42;;;;;;;1999.90;999.90;;;29.40;99.90;;;;;;5011193;28;20835;-73
2023/09/10 10:14:09;;;;;;;1999.90;999.90;;;29.40;99.90;;;;;;4993329;28;20198;-73
2023/09/10 10:16:35;;;;;;;1999.90;999.90;;;29.60;99.90;;;;;;4995973;28;21214;-74
2023/09/10 10:19:01;;;;;;;1999.90;999.90;;;29.70;99.90;;;;;;5009947;28;20498;-73
2023/09/10 10:21:28;;;;;;;1999.90;999.90;;;29.80;99.90;;;;;;5003981;28;20460;-73
2023/09/10 10:23:56;;;;;;;1999.90;999.90;;;30.00;99.90;;;;;;4991855;28;20453;-74
2023/09/10 10:26:23;;;;;;;1999.90;999.90;;;30.20;99.50;;;;;;4984306;28;20476;-74
2023/09/10 10:28:49;;;;;;;1999.90;999.90;;;30.30;99.90;;;;;;4991672;28;20789;-73
2023/09/10 10:31:28;;;;;;;1999.90;999.90;;;30.50;98.30;;;;;;4986909;28;20479;-72
2023/09/10 10:34:13;;;;;;;1999.90;999.90;;;30.50;98.60;;;;;;4990650;28;20456;-73
2023/09/10 10:36:50;;;;;;;1999.90;999.90;;;30.70;97.20;;;;;;4988606;28;20443;-76
2023/09/10 10:39:19;;;;;;;1999.90;999.90;;;30.80;96.50;;;;;;4988297;28;20880;-75
2023/09/10 10:41:50;;;;;;;1999.90;999.90;;;30.90;95.60;;;;;;4989265;28;20413;-75
2023/09/10 10:44:21;;;;;;;1999.90;999.90;;;31.10;92.10;;;;;;4982397;28;20443;-75
2023/09/10 10:46:58;;;;;;;1999.90;999.90;;;31.20;90.30;;;;;;4995589;28;20467;-75
2023/09/10 10:49:25;;;;;;;1999.90;999.90;;;31.30;83.90;;;;;;4993370;28;20419;-75
2023/09/10 10:51:54;;;;;;;1999.90;999.90;;;31.40;77.20;;;;;;4992028;28;20424;-76
2023/09/10 10:54:20;;;;;;;1999.90;999.90;;;31.50;67.30;;;;;;4994996;28;20439;-75
2023/09/10 10:56:47;;;;;;;1999.90;999.90;;;31.50;69.10;;;;;;4995093;28;20427;-75
2023/09/10 10:59:13;;;;;;;1999.90;999.90;;;31.60;71.90;;;;;;4995096;28;20413;-75
2023/09/10 11:01:39;;;;;;;1999.90;999.90;;;31.70;71.50;;;;;;4995181;28;20887;-75
2023/09/10 11:04:18;;;;;;;1999.90;999.90;;;31.80;62.40;;;;;;4994639;28;20444;-75
2023/09/10 11:07:16;;;;;;;1999.90;999.90;;;31.90;63.30;;;;;;4990846;28;20484;-75
2023/09/10 11:09:42;;;;;;;1999.90;999.90;;;32.10;60.70;;;;;;4990414;28;20423;-75
2023/09/10 11:12:08;;;;;;;1999.90;999.90;;;32.20;56.30;;;;;;4994361;28;20424;-75
2023/09/10 11:14:58;;;;;;;1999.90;999.90;;;32.20;55.70;;;;;;4994933;28;20205;-75
2023/09/10 11:17:25;;;;;;;1999.90;999.90;;;32.30;53.00;;;;;;4994933;28;20225;-75
2023/09/10 11:19:51;;;;;;;1999.90;999.90;;;32.40;53.30;;;;;;4994682;28;20460;-76
2023/09/10 11:22:17;;;;;;;1999.90;999.90;;;32.40;52.90;;;;;;4994434;28;20424;-75
2023/09/10 11:24:42;;;;;;;1999.90;999.90;;;32.30;52.30;;;;;;4994569;28;20740;-75
2023/09/10 11:27:27;;;;;;;1999.90;999.90;;;32.40;55.00;;;;;;4994621;28;20257;-75
2023/09/10 11:30:12;;;;;;;1999.90;999.90;;;32.50;50.00;;;;;;4994470;28;20521;-75
2023/09/10 11:32:37;;;;;;;1999.90;999.90;;;32.60;48.60;;;;;;4999510;28;20849;-75
2023/09/10 11:35:23;;;;;;;1999.90;999.90;;;32.60;44.80;;;;;;4994540;28;20425;-75
2023/09/10 11:37:55;;;;;;;1999.90;999.90;;;32.70;45.20;;;;;;4994273;28;20212;-75
2023/09/10 11:40:22;;;;;;;1999.90;999.90;;;32.80;44.40;;;;;;4987115;28;20885;-76
2023/09/10 11:42:49;;;;;;;1999.90;999.90;;;32.90;43.00;;;;;;4989975;28;20413;-76
2023/09/10 11:45:16;;;;;;;1999.90;999.90;;;33.10;43.90;;;;;;4994322;28;20425;-75
2023/09/10 11:47:47;;;;;;;1999.90;999.90;;;33.70;40.30;;;;;;4994375;28;20424;-75
2023/09/10 11:50:13;;;;;;;1999.90;999.90;;;34.50;39.90;;;;;;4994097;28;20908;-76
2023/09/10 11:52:40;;;;;;;1999.90;999.90;;;35.30;31.80;;;;;;4993790;28;20900;-75
2023/09/10 11:55:09;;;;;;;1999.90;999.90;;;36.10;25.20;;;;;;4994227;28;20900;-75
2023/09/10 11:57:38;;;;;;;1999.90;999.90;;;36.70;19.90;;;;;;4994238;28;20413;-76
2023/09/10 12:00:05;;;;;;;1999.90;999.90;;;37.40;17.60;;;;;;4994481;28;20967;-76